createdAt,value
2018-03-31T00:02:16.148Z,54.73
2018-03-31T00:04:43.628Z,54.14
2018-03-31T00:07:10.677Z,55.05
2018-03-31T00:09:38.249Z,54.88
2018-03-31T00:12:05.973Z,55.16
2018-03-31T00:14:33.479Z,55.38
2018-03-31T00:17:01.004Z,54.96
2018-03-31T00:19:28.750Z,55.48
2018-03-31T00:21:55.830Z,54.96
2018-03-31T00:24:22.873Z,55.17
2018-03-31T00:26:49.984Z,55.79
2018-03-31T00:29:17.940Z,55.60
2018-03-31T00:31:44.941Z,55.51
2018-03-31T00:34:12.264Z,55.57
2018-03-31T00:36:39.319Z,55.79
2018-03-31T00:39:06.349Z,55.61
2018-03-31T00:41:33.349Z,55.75
2018-03-31T00:44:00.443Z,56.10
2018-03-31T00:46:27.490Z,55.83
2018-03-31T00:48:54.683Z,55.72
2018-03-31T00:51:22.647Z,55.45
2018-03-31T00:53:49.799Z,55.00
2018-03-31T00:56:16.882Z,55.64
2018-03-31T00:58:44.937Z,56.02
2018-03-31T01:01:13.049Z,55.59
2018-03-31T01:03:40.853Z,55.21
2018-03-31T01:06:08.067Z,55.61
2018-03-31T01:08:35.895Z,55.77
2018-03-31T01:11:02.987Z,55.83
2018-03-31T01:13:30.132Z,55.30
2018-03-31T01:15:57.366Z,55.82
2018-03-31T01:18:25.288Z,54.89
2018-03-31T01:20:52.639Z,55.66
2018-03-31T01:23:20.152Z,55.45
2018-03-31T01:25:47.275Z,55.27
2018-03-31T01:28:14.317Z,55.60
2018-03-31T01:30:42.080Z,55.95
2018-03-31T01:33:10.380Z,56.10
2018-03-31T01:35:37.505Z,56.40
2018-03-31T01:38:04.562Z,55.76
2018-03-31T01:40:31.615Z,56.21
2018-03-31T01:42:58.726Z,56.23
2018-03-31T01:45:25.826Z,56.05
2018-03-31T01:47:52.964Z,55.85
2018-03-31T01:50:21.227Z,55.85
2018-03-31T01:52:48.316Z,56.10
2018-03-31T01:55:16.210Z,56.22
2018-03-31T01:57:43.311Z,55.99
2018-03-31T02:00:10.824Z,56.60
2018-03-31T02:02:38.583Z,56.28
2018-03-31T02:05:05.620Z,55.95
2018-03-31T02:07:33.259Z,55.73
2018-03-31T02:10:00.822Z,56.04
2018-03-31T02:12:27.891Z,56.15
2018-03-31T02:14:55.282Z,56.13
2018-03-31T02:17:22.856Z,56.09
2018-03-31T02:19:50.345Z,56.31
2018-03-31T02:22:17.359Z,55.75
2018-03-31T02:24:45.117Z,56.25
2018-03-31T02:27:12.221Z,56.36
2018-03-31T02:29:40.064Z,56.13
2018-03-31T02:32:07.107Z,56.19
2018-03-31T02:34:34.337Z,56.06
2018-03-31T02:37:01.399Z,56.04
2018-03-31T02:39:28.530Z,55.99
2018-03-31T02:41:55.568Z,55.93
2018-03-31T02:44:22.687Z,55.85
2018-03-31T02:46:49.730Z,56.06
2018-03-31T02:49:16.771Z,56.07
2018-03-31T02:51:44.364Z,56.28
2018-03-31T02:54:11.389Z,56.05
2018-03-31T02:56:38.479Z,56.14
2018-03-31T02:59:06.284Z,56.26
2018-03-31T03:01:34.101Z,56.42
2018-03-31T03:04:01.824Z,56.32
2018-03-31T03:06:28.936Z,56.19
2018-03-31T03:08:56.767Z,56.54
2018-03-31T03:11:23.998Z,56.13
2018-03-31T03:13:51.041Z,56.26
2018-03-31T03:16:18.094Z,56.57
2018-03-31T03:18:45.684Z,57.02
2018-03-31T03:21:12.984Z,56.98
2018-03-31T03:23:40.594Z,57.09
2018-03-31T03:26:07.666Z,57.60
2018-03-31T03:28:34.752Z,57.92
2018-03-31T03:31:02.580Z,58.21
2018-03-31T03:33:29.685Z,58.04
2018-03-31T03:35:56.733Z,57.96
2018-03-31T03:38:23.865Z,57.62
2018-03-31T03:40:50.980Z,57.64
2018-03-31T03:43:18.207Z,57.79
2018-03-31T03:45:45.421Z,58.50
2018-03-31T03:48:12.803Z,59.25
2018-03-31T03:50:40.876Z,58.74
2018-03-31T03:53:07.940Z,59.18
2018-03-31T03:55:34.995Z,59.89
2018-03-31T03:58:02.119Z,60.04
2018-03-31T04:00:30.013Z,60.80
2018-03-31T04:02:57.991Z,61.14
2018-03-31T04:05:25.219Z,60.99
2018-03-31T04:07:52.389Z,61.19
2018-03-31T04:10:20.311Z,60.97
2018-03-31T04:12:47.432Z,60.86
2018-03-31T04:15:15.156Z,61.25
2018-03-31T04:17:44.373Z,61.29
2018-03-31T04:20:12.281Z,61.37
2018-03-31T04:22:39.984Z,61.76
2018-03-31T04:25:07.267Z,62.43
2018-03-31T04:27:34.418Z,61.69
2018-03-31T04:30:02.181Z,62.17
2018-03-31T04:32:29.296Z,61.99
2018-03-31T04:34:56.433Z,61.76
2018-03-31T04:37:23.630Z,61.82
2018-03-31T04:39:50.749Z,61.90
2018-03-31T04:42:17.828Z,61.81
2018-03-31T04:44:44.979Z,60.94
2018-03-31T04:47:12.052Z,61.89
2018-03-31T04:49:39.893Z,62.03
2018-03-31T04:52:07.041Z,62.14
2018-03-31T04:54:34.141Z,61.55
2018-03-31T04:57:01.301Z,61.89
2018-03-31T04:59:28.916Z,62.01
2018-03-31T05:01:56.766Z,61.38
2018-03-31T05:04:24.734Z,62.31
2018-03-31T05:06:51.986Z,61.75
2018-03-31T05:09:19.733Z,62.23
2018-03-31T05:11:46.836Z,61.92
2018-03-31T05:14:14.008Z,62.30
2018-03-31T05:16:41.097Z,60.90
2018-03-31T05:19:09.125Z,61.51
2018-03-31T05:21:36.189Z,62.45
2018-03-31T05:24:04.116Z,62.92
2018-03-31T05:26:31.278Z,62.45
2018-03-31T05:28:58.834Z,62.28
2018-03-31T05:31:26.654Z,62.35
2018-03-31T05:33:54.117Z,62.31
2018-03-31T05:36:21.372Z,61.53
2018-03-31T05:38:48.558Z,60.59
2018-03-31T05:41:16.346Z,59.31
2018-03-31T05:43:43.683Z,59.19
2018-03-31T05:46:10.980Z,58.25
2018-03-31T05:48:38.001Z,58.72
2018-03-31T05:51:06.932Z,58.75
2018-03-31T05:53:34.234Z,58.14
2018-03-31T05:56:02.745Z,58.06
2018-03-31T05:58:30.497Z,57.44
2018-03-31T06:00:58.168Z,56.57
2018-03-31T06:03:25.865Z,55.48
2018-03-31T06:05:52.946Z,55.26
2018-03-31T06:08:20.836Z,53.37
2018-03-31T06:10:48.033Z,53.15
2018-03-31T06:13:15.187Z,53.22
2018-03-31T06:15:42.282Z,53.02
2018-03-31T06:18:10.228Z,52.71
2018-03-31T06:20:37.340Z,52.41
2018-03-31T06:23:05.270Z,52.22
2018-03-31T06:25:32.320Z,52.70
2018-03-31T06:27:59.480Z,51.77
2018-03-31T06:30:27.511Z,50.94
2018-03-31T06:32:54.593Z,50.71
2018-03-31T06:35:21.643Z,50.83
2018-03-31T06:37:48.680Z,50.61
2018-03-31T06:40:16.286Z,49.36
2018-03-31T06:42:43.848Z,48.51
2018-03-31T06:45:11.053Z,48.06
2018-03-31T06:47:39.133Z,48.67
2018-03-31T06:50:06.751Z,48.15
2018-03-31T06:52:33.934Z,48.28
2018-03-31T06:55:01.555Z,47.42
2018-03-31T06:57:28.644Z,46.83
2018-03-31T06:59:56.298Z,47.04
2018-03-31T07:02:23.302Z,46.29
2018-03-31T07:04:50.745Z,45.68
2018-03-31T07:07:17.737Z,46.00
2018-03-31T07:09:45.664Z,45.44
2018-03-31T07:12:12.665Z,45.04
2018-03-31T07:14:39.655Z,45.08
2018-03-31T07:17:07.329Z,44.15
2018-03-31T07:19:34.838Z,43.94
2018-03-31T07:22:01.824Z,42.73
2018-03-31T07:24:29.377Z,42.45
2018-03-31T07:26:56.365Z,43.55
2018-03-31T07:29:24.068Z,43.42
2018-03-31T07:31:51.061Z,42.18
2018-03-31T07:34:18.068Z,43.16
2018-03-31T07:36:45.459Z,43.20
2018-03-31T07:39:12.458Z,42.80
2018-03-31T07:41:39.477Z,43.42
2018-03-31T07:44:06.509Z,43.72
2018-03-31T07:46:33.535Z,43.59
2018-03-31T07:49:00.524Z,43.08
2018-03-31T07:51:28.312Z,42.57
2018-03-31T07:53:55.357Z,43.19
2018-03-31T07:56:22.352Z,43.23
2018-03-31T07:58:49.868Z,43.06
2018-03-31T08:01:17.645Z,42.90
2018-03-31T08:03:45.336Z,42.33
2018-03-31T08:06:12.341Z,42.87
2018-03-31T08:08:39.845Z,42.61
2018-03-31T08:11:06.804Z,42.28
2018-03-31T08:13:33.811Z,41.59
2018-03-31T08:16:00.848Z,42.00
2018-03-31T08:18:28.624Z,41.83
2018-03-31T08:20:55.654Z,41.81
2018-03-31T08:23:23.487Z,41.16
2018-03-31T08:25:50.506Z,41.97
2018-03-31T08:28:17.542Z,42.06
2018-03-31T08:30:45.322Z,41.64
2018-03-31T08:33:13.015Z,41.91
2018-03-31T08:35:40.005Z,41.55
2018-03-31T08:38:07.030Z,40.45
2018-03-31T08:40:34.069Z,40.58
2018-03-31T08:43:01.225Z,40.96
2018-03-31T08:45:28.216Z,40.74
2018-03-31T08:47:55.799Z,41.38
2018-03-31T08:50:23.594Z,41.35
2018-03-31T08:52:50.581Z,41.72
2018-03-31T08:55:17.609Z,41.80
2018-03-31T08:57:44.815Z,40.35
2018-03-31T09:00:12.419Z,40.68
2018-03-31T09:02:40.041Z,39.89
2018-03-31T09:05:07.062Z,40.21
2018-03-31T09:07:34.103Z,40.21
2018-03-31T09:10:01.130Z,40.57
2018-03-31T09:12:28.142Z,39.26
2018-03-31T09:14:55.229Z,39.64
2018-03-31T09:17:22.764Z,39.39
2018-03-31T09:19:50.465Z,39.38
2018-03-31T09:22:17.512Z,39.29
2018-03-31T09:24:46.099Z,38.76
2018-03-31T09:27:14.282Z,38.24
2018-03-31T09:29:42.124Z,38.25
2018-03-31T09:32:09.109Z,38.31
2018-03-31T09:34:36.096Z,38.35
2018-03-31T09:37:03.105Z,38.01
2018-03-31T09:39:30.109Z,38.03
2018-03-31T09:41:57.099Z,37.39
2018-03-31T09:44:24.291Z,36.97
2018-03-31T09:46:51.904Z,36.19
2018-03-31T09:49:19.279Z,36.19
2018-03-31T09:51:46.571Z,35.23
2018-03-31T09:54:13.629Z,35.51
2018-03-31T09:56:40.648Z,35.97
2018-03-31T09:59:08.057Z,35.55
2018-03-31T10:01:35.595Z,35.91
2018-03-31T10:04:03.320Z,36.06
2018-03-31T10:06:30.296Z,35.99
2018-03-31T10:08:57.302Z,35.83
2018-03-31T10:11:24.500Z,35.41
2018-03-31T10:13:51.494Z,34.82
2018-03-31T10:16:19.770Z,35.13
2018-03-31T10:18:48.664Z,35.04
2018-03-31T10:21:15.660Z,35.12
2018-03-31T10:23:43.516Z,35.11
2018-03-31T10:26:10.549Z,35.23
2018-03-31T10:28:37.575Z,35.88
2018-03-31T10:31:05.048Z,35.35
2018-03-31T10:33:32.049Z,35.39
2018-03-31T10:35:59.071Z,35.55
2018-03-31T10:38:26.088Z,35.85
2018-03-31T10:40:53.096Z,34.00
2018-03-31T10:43:20.101Z,34.06
2018-03-31T10:45:47.652Z,34.39
2018-03-31T10:48:16.019Z,34.96
2018-03-31T10:50:44.337Z,35.06
2018-03-31T10:53:11.804Z,34.49
2018-03-31T10:55:39.100Z,34.94
2018-03-31T10:58:06.105Z,33.92
2018-03-31T11:00:33.835Z,34.54
2018-03-31T11:03:01.606Z,33.93
2018-03-31T11:05:28.643Z,34.23
2018-03-31T11:07:55.653Z,33.32
2018-03-31T11:10:22.690Z,33.24
2018-03-31T11:12:49.771Z,32.75
2018-03-31T11:15:16.753Z,33.27
2018-03-31T11:17:44.395Z,32.96
2018-03-31T11:20:11.859Z,32.17
2018-03-31T11:22:39.603Z,32.15
2018-03-31T11:25:06.584Z,32.66
2018-03-31T11:27:33.560Z,33.16
2018-03-31T11:30:01.278Z,33.50
2018-03-31T11:32:28.261Z,32.56
2018-03-31T11:34:55.251Z,32.57
2018-03-31T11:37:22.272Z,33.66
2018-03-31T11:39:49.272Z,33.54
2018-03-31T11:42:16.938Z,32.54
2018-03-31T11:44:44.997Z,33.68
2018-03-31T11:47:12.001Z,32.84
2018-03-31T11:49:39.682Z,32.48
2018-03-31T11:52:06.720Z,32.53
2018-03-31T11:54:34.183Z,33.19
2018-03-31T11:57:01.181Z,33.29
2018-03-31T11:59:28.604Z,32.92
2018-03-31T12:01:56.061Z,33.32
2018-03-31T12:04:23.633Z,34.02
2018-03-31T12:06:50.861Z,32.76
2018-03-31T12:09:17.840Z,33.39
2018-03-31T12:11:44.876Z,32.85
2018-03-31T12:14:11.908Z,33.27
2018-03-31T12:16:39.708Z,33.30
2018-03-31T12:19:07.237Z,33.97
2018-03-31T12:21:34.220Z,34.36
2018-03-31T12:24:01.623Z,34.20
2018-03-31T12:26:28.612Z,34.91
2018-03-31T12:28:55.597Z,33.81
2018-03-31T12:31:23.100Z,33.36
2018-03-31T12:33:50.152Z,34.64
2018-03-31T12:36:17.842Z,35.28
2018-03-31T12:38:44.825Z,34.67
2018-03-31T12:41:12.580Z,33.55
2018-03-31T12:43:39.556Z,34.00
2018-03-31T12:46:06.552Z,34.60
2018-03-31T12:48:33.568Z,34.53
2018-03-31T12:51:01.692Z,34.42
2018-03-31T12:53:29.544Z,33.62
2018-03-31T12:55:57.265Z,34.97
2018-03-31T12:58:25.396Z,35.08
2018-03-31T13:00:52.992Z,34.68
2018-03-31T13:03:20.675Z,34.49
2018-03-31T13:05:47.675Z,34.70
2018-03-31T13:08:14.702Z,34.84
2018-03-31T13:10:41.707Z,35.15
2018-03-31T13:13:08.685Z,35.86
2018-03-31T13:15:35.667Z,36.00
2018-03-31T13:18:03.084Z,35.50
2018-03-31T13:20:30.580Z,35.61
2018-03-31T13:22:58.103Z,35.34
2018-03-31T13:25:25.087Z,35.72
2018-03-31T13:27:52.076Z,35.90
2018-03-31T13:30:19.618Z,35.82
2018-03-31T13:32:46.757Z,36.08
2018-03-31T13:35:15.266Z,36.10
2018-03-31T13:37:42.934Z,36.49
2018-03-31T13:40:09.922Z,36.19
2018-03-31T13:42:37.644Z,35.83
2018-03-31T13:45:04.644Z,35.63
2018-03-31T13:47:32.612Z,35.45
2018-03-31T13:50:00.243Z,35.56
2018-03-31T13:52:27.232Z,36.00
2018-03-31T13:54:54.898Z,35.49
2018-03-31T13:57:21.917Z,36.23
2018-03-31T13:59:49.549Z,35.66
2018-03-31T14:02:16.577Z,36.13
2018-03-31T14:04:44.003Z,35.93
2018-03-31T14:07:11.017Z,35.26
2018-03-31T14:09:37.992Z,35.67
2018-03-31T14:12:05.170Z,36.33
2018-03-31T14:14:32.181Z,36.77
2018-03-31T14:16:59.619Z,36.89
2018-03-31T14:19:27.104Z,37.55
2018-03-31T14:21:54.316Z,37.70
2018-03-31T14:24:21.928Z,38.47
2018-03-31T14:26:49.380Z,38.70
2018-03-31T14:29:17.588Z,38.84
2018-03-31T14:31:44.582Z,38.90
2018-03-31T14:34:11.576Z,38.91
2018-03-31T14:36:39.404Z,39.60
2018-03-31T14:39:06.383Z,39.46
2018-03-31T14:41:33.391Z,39.81
2018-03-31T14:44:00.408Z,40.19
2018-03-31T14:46:27.403Z,40.74
2018-03-31T14:48:54.802Z,41.02
2018-03-31T14:51:22.291Z,40.96
2018-03-31T14:53:49.353Z,40.95
2018-03-31T14:56:17.122Z,40.86
2018-03-31T14:58:44.886Z,41.05
2018-03-31T15:01:13.443Z,41.39
2018-03-31T15:03:41.165Z,42.04
2018-03-31T15:06:08.153Z,42.50
2018-03-31T15:08:35.149Z,42.87
2018-03-31T15:11:02.177Z,42.94
2018-03-31T15:13:29.727Z,43.16
2018-03-31T15:15:56.719Z,43.52
2018-03-31T15:18:24.743Z,43.57
2018-03-31T15:20:51.741Z,44.10
2018-03-31T15:23:19.330Z,44.87
2018-03-31T15:25:46.619Z,45.37
2018-03-31T15:28:13.593Z,46.05
2018-03-31T15:30:41.259Z,46.89
2018-03-31T15:33:08.679Z,47.70
2018-03-31T15:35:36.514Z,48.13
2018-03-31T15:38:03.514Z,48.33
2018-03-31T15:40:30.519Z,48.75
2018-03-31T15:42:57.543Z,48.66
2018-03-31T15:45:24.701Z,48.59
2018-03-31T15:47:51.883Z,48.24
2018-03-31T15:50:18.911Z,48.24
2018-03-31T15:52:46.107Z,49.11
2018-03-31T15:55:13.940Z,49.32
2018-03-31T15:57:40.916Z,49.00
2018-03-31T16:00:08.431Z,49.23
2018-03-31T16:02:36.183Z,49.42
2018-03-31T16:05:03.186Z,49.90
2018-03-31T16:07:30.176Z,50.46
2018-03-31T16:09:57.192Z,50.96
2018-03-31T16:12:25.223Z,50.67
2018-03-31T16:14:53.069Z,49.93
2018-03-31T16:17:20.793Z,48.67
2018-03-31T16:19:47.800Z,47.78
2018-03-31T16:22:14.801Z,47.56
2018-03-31T16:24:42.376Z,46.95
2018-03-31T16:27:09.408Z,46.74
2018-03-31T16:29:36.398Z,46.53
2018-03-31T16:32:04.023Z,46.57
2018-03-31T16:34:31.018Z,46.22
2018-03-31T16:36:58.936Z,45.56
2018-03-31T16:39:25.947Z,45.07
2018-03-31T16:41:52.962Z,44.99
2018-03-31T16:44:20.016Z,45.30
2018-03-31T16:46:47.079Z,45.56
2018-03-31T16:49:14.128Z,45.39
2018-03-31T16:51:41.936Z,45.58
2018-03-31T16:54:10.448Z,46.00
2018-03-31T16:56:37.434Z,46.44
2018-03-31T16:59:05.125Z,47.81
2018-03-31T17:01:32.471Z,49.29
2018-03-31T17:04:00.181Z,50.49
2018-03-31T17:06:27.168Z,51.31
2018-03-31T17:08:54.297Z,52.09
2018-03-31T17:11:21.330Z,52.99
2018-03-31T17:13:48.973Z,53.73
2018-03-31T17:16:17.868Z,54.33
2018-03-31T17:18:45.440Z,54.88
2018-03-31T17:21:12.457Z,55.34
2018-03-31T17:23:39.946Z,55.88
2018-03-31T17:26:06.940Z,56.52
2018-03-31T17:28:34.680Z,56.86
2018-03-31T17:31:02.416Z,57.08
2018-03-31T17:33:29.418Z,57.22
2018-03-31T17:35:57.116Z,57.37
2018-03-31T17:38:24.221Z,57.99
2018-03-31T17:40:51.220Z,58.27
2018-03-31T17:43:18.242Z,58.49
2018-03-31T17:45:46.085Z,58.75
2018-03-31T17:48:13.080Z,58.97
2018-03-31T17:50:40.425Z,59.09
2018-03-31T17:53:07.420Z,59.46
2018-03-31T17:55:34.929Z,59.50
2018-03-31T17:58:01.923Z,59.46
2018-03-31T18:00:30.499Z,59.58
2018-03-31T18:02:58.214Z,59.83
2018-03-31T18:05:25.887Z,60.11
2018-03-31T18:07:52.880Z,60.40
2018-03-31T18:10:19.897Z,60.46
2018-03-31T18:12:47.608Z,60.53
2018-03-31T18:15:14.628Z,60.99
2018-03-31T18:17:42.157Z,61.17
2018-03-31T18:20:09.153Z,60.96
2018-03-31T18:22:37.037Z,61.31
2018-03-31T18:25:04.254Z,61.52
2018-03-31T18:27:31.899Z,61.67
2018-03-31T18:29:58.906Z,61.77
2018-03-31T18:32:25.907Z,61.79
2018-03-31T18:34:53.638Z,62.06
2018-03-31T18:37:20.691Z,62.08
2018-03-31T18:39:47.702Z,62.14
2018-03-31T18:42:14.743Z,62.21
2018-03-31T18:44:41.801Z,62.02
2018-03-31T18:47:08.806Z,62.43
2018-03-31T18:49:35.845Z,62.56
2018-03-31T18:52:03.047Z,62.84
2018-03-31T18:54:30.999Z,62.68
2018-03-31T18:56:58.028Z,62.76
2018-03-31T18:59:25.669Z,62.81
2018-03-31T19:01:53.164Z,63.25
2018-03-31T19:04:20.694Z,63.25
2018-03-31T19:06:47.754Z,63.22
2018-03-31T19:11:42.067Z,63.40
2018-03-31T19:14:09.064Z,63.53
2018-03-31T19:16:42.562Z,63.75
2018-03-31T19:19:10.191Z,63.82
2018-03-31T19:21:37.185Z,64.03
2018-03-31T19:24:05.019Z,64.17
2018-03-31T19:26:32.012Z,64.25
2018-03-31T19:28:59.078Z,64.41
2018-03-31T19:31:26.113Z,64.27
2018-03-31T19:33:53.114Z,64.62
2018-03-31T19:36:20.861Z,64.72
2018-03-31T19:38:47.911Z,64.81
2018-03-31T19:41:15.038Z,65.12
2018-03-31T19:43:42.104Z,64.99
2018-03-31T19:46:09.150Z,65.49
2018-03-31T19:48:36.275Z,65.54
2018-03-31T19:51:03.376Z,65.80
2018-03-31T19:53:30.447Z,65.92
2018-03-31T19:55:58.490Z,66.13
2018-03-31T19:58:26.370Z,66.21
2018-03-31T20:00:55.794Z,66.49
2018-03-31T20:03:23.511Z,66.77
2018-03-31T20:05:50.497Z,67.00
2018-03-31T20:08:17.494Z,66.74
2018-03-31T20:10:44.597Z,66.53
2018-03-31T20:13:12.388Z,66.71
2018-03-31T20:15:40.125Z,66.85
2018-03-31T20:18:07.758Z,67.41
2018-03-31T20:20:35.309Z,67.44
2018-03-31T20:23:02.928Z,67.52
2018-03-31T20:25:29.989Z,67.67
2018-03-31T20:27:57.485Z,68.01
2018-03-31T20:30:24.555Z,68.25
2018-03-31T20:32:51.582Z,68.55
2018-03-31T20:35:20.801Z,68.62
2018-03-31T20:37:48.109Z,68.85
2018-03-31T20:40:15.104Z,69.05
2018-03-31T20:42:42.161Z,69.20
2018-03-31T20:45:09.153Z,69.03
2018-03-31T20:47:36.694Z,69.17
2018-03-31T20:50:03.726Z,69.42
2018-03-31T20:52:30.750Z,69.93
2018-03-31T20:54:58.436Z,70.09
2018-03-31T20:57:25.439Z,70.15
2018-03-31T20:59:53.279Z,70.10
2018-03-31T21:02:20.361Z,70.11
2018-03-31T21:04:47.883Z,70.22
2018-03-31T21:07:14.910Z,70.25
2018-03-31T21:09:41.916Z,70.70
2018-03-31T21:12:09.973Z,70.82
2018-03-31T21:14:36.964Z,71.10
2018-03-31T21:17:04.910Z,71.12
2018-03-31T21:19:32.418Z,71.44
2018-03-31T21:21:59.478Z,71.54
2018-03-31T21:24:27.053Z,71.55
2018-03-31T21:26:54.047Z,71.72
2018-03-31T21:29:21.096Z,72.00
2018-03-31T21:31:48.189Z,71.86
2018-03-31T21:34:15.265Z,72.11
2018-03-31T21:36:42.342Z,71.68
2018-03-31T21:39:09.669Z,71.99
2018-03-31T21:41:36.687Z,72.07
2018-03-31T21:44:03.865Z,71.99
2018-03-31T21:46:30.942Z,72.03
2018-03-31T21:48:58.056Z,71.97
2018-03-31T21:51:25.210Z,72.15
2018-03-31T21:53:53.070Z,72.23
2018-03-31T21:56:20.547Z,72.46
2018-03-31T21:58:48.226Z,72.10
2018-03-31T22:01:16.464Z,71.99
2018-03-31T22:03:44.046Z,71.67
2018-03-31T22:06:11.116Z,71.93
2018-03-31T22:08:38.103Z,72.53
2018-03-31T22:11:05.228Z,72.92
2018-03-31T22:13:38.552Z,73.01
2018-03-31T22:16:06.270Z,73.65
2018-03-31T22:18:34.018Z,74.12
2018-03-31T22:21:01.044Z,74.42
2018-03-31T22:23:28.952Z,74.97
2018-03-31T22:25:55.994Z,75.42
2018-03-31T22:28:23.016Z,75.85
2018-03-31T22:30:50.123Z,76.48
2018-03-31T22:33:17.949Z,76.76
2018-03-31T22:35:45.860Z,76.69
2018-03-31T22:38:12.968Z,76.80
2018-03-31T22:40:40.001Z,77.30
2018-03-31T22:43:07.062Z,78.02
2018-03-31T22:45:34.440Z,78.28
2018-03-31T22:48:01.522Z,78.52
2018-03-31T22:50:28.693Z,78.57
2018-03-31T22:52:55.763Z,78.65
2018-03-31T22:55:23.346Z,79.02
2018-03-31T22:57:50.762Z,79.02
2018-03-31T23:00:19.323Z,78.74
2018-03-31T23:02:47.273Z,78.96
2018-03-31T23:05:14.445Z,78.82
2018-03-31T23:07:41.455Z,79.15
2018-03-31T23:10:08.943Z,79.38
2018-03-31T23:12:36.569Z,79.31
2018-03-31T23:15:04.101Z,79.23
2018-03-31T23:17:31.728Z,79.63
2018-03-31T23:19:58.832Z,79.59
2018-03-31T23:22:26.500Z,79.57
2018-03-31T23:24:54.208Z,79.68
2018-03-31T23:27:21.573Z,79.80
2018-03-31T23:29:48.774Z,80.32
2018-03-31T23:32:15.847Z,80.56
2018-03-31T23:34:43.150Z,80.67
2018-03-31T23:37:10.268Z,80.75
2018-03-31T23:39:37.472Z,81.03
2018-03-31T23:42:04.470Z,81.11
2018-03-31T23:44:31.536Z,81.26
2018-03-31T23:46:58.629Z,81.44
2018-03-31T23:49:26.814Z,81.32
2018-03-31T23:51:53.860Z,81.51
2018-03-31T23:54:21.993Z,81.39
2018-03-31T23:56:48.984Z,81.52
2018-03-31T23:59:16.597Z,81.14
